Time;durP1;ratioP1;P1;durP2;ratioP2;P2;SDS_P1;SDS_P2;PMS_P1;PMS_P2;Temp;Humidity;BMP_temperature;BMP_pressure;BME280_temperature;BME280_humidity;BME280_pressure;Samples;Min_cycle;Max_cycle;Signal;HPM_P1;HPM_P2
2021/06/13 00:00:18;;;;;;;4.57;4.13;;;;;;;14.67;100.00;96538.72;5114264;28;20199;-82
2021/06/13 00:02:45;;;;;;;3.70;3.40;;;;;;;14.66;100.00;96544.19;5114637;28;20196;-82
2021/06/13 00:05:14;;;;;;;8.37;3.23;;;;;;;14.66;100.00;96539.72;5114218;28;20227;-82
2021/06/13 00:07:41;;;;;;;3.40;3.13;;;;;;;14.72;100.00;96544.31;5114260;28;20202;-82
2021/06/13 00:10:09;;;;;;;3.67;2.60;;;;;;;14.84;100.00;96535.94;5114530;28;20180;-82
2021/06/13 00:12:38;;;;;;;5.50;2.83;;;;;;;14.80;100.00;96535.47;5114331;28;20276;-83
2021/06/13 00:15:06;;;;;;;3.43;2.90;;;;;;;14.76;100.00;96531.53;5114158;28;20203;-83
2021/06/13 00:17:33;;;;;;;2.57;2.47;;;;;;;14.81;100.00;96536.28;5114002;28;20200;-83
2021/06/13 00:20:00;;;;;;;4.40;3.00;;;;;;;14.73;100.00;96526.59;5114075;28;20209;-83
2021/06/13 00:22:27;;;;;;;2.60;2.40;;;;;;;14.81;100.00;96523.06;5114252;28;20198;-83
2021/06/13 00:24:54;;;;;;;3.53;3.23;;;;;;;14.90;100.00;96522.81;5113957;28;20200;-83
2021/06/13 00:27:21;;;;;;;3.10;2.90;;;;;;;14.92;100.00;96515.50;5114131;28;20214;-83
2021/06/13 00:29:49;;;;;;;2.87;2.60;;;;;;;14.85;100.00;96519.06;5113991;28;20650;-83
2021/06/13 00:32:16;;;;;;;2.93;2.73;;;;;;;14.89;100.00;96513.22;5113516;28;20219;-83
2021/06/13 00:34:43;;;;;;;2.90;2.70;;;;;;;14.95;100.00;96515.16;5113765;28;20197;-83
2021/06/13 00:37:09;;;;;;;3.27;2.97;;;;;;;14.88;100.00;96508.13;5113684;28;20261;-83
2021/06/13 00:39:36;;;;;;;2.83;2.63;;;;;;;14.93;100.00;96496.00;5113726;28;20203;-83
2021/06/13 00:42:04;;;;;;;3.40;3.13;;;;;;;14.83;100.00;96506.00;5113847;28;20199;-83
2021/06/13 00:44:32;;;;;;;4.73;2.73;;;;;;;14.82;100.00;96507.00;5113366;28;20196;-83
2021/06/13 00:47:00;;;;;;;2.93;2.50;;;;;;;14.71;100.00;96510.06;5113680;28;20204;-83
2021/06/13 00:49:27;;;;;;;3.30;3.10;;;;;;;14.70;100.00;96506.59;5113852;28;20196;-83
2021/06/13 00:51:54;;;;;;;3.13;2.83;;;;;;;14.61;100.00;96506.84;5113532;28;20259;-83
2021/06/13 00:54:21;;;;;;;2.93;2.73;;;;;;;14.58;100.00;96504.56;5113277;28;20199;-83
2021/06/13 00:56:48;;;;;;;3.17;2.87;;;;;;;14.54;100.00;96506.72;5113437;28;20580;-83
2021/06/13 00:59:16;;;;;;;3.13;2.93;;;;;;;14.60;100.00;96503.38;5113331;28;20225;-83
2021/06/13 01:01:43;;;;;;;3.50;3.20;;;;;;;14.60;100.00;96505.22;5113436;28;20199;-83
2021/06/13 01:04:11;;;;;;;3.40;3.10;;;;;;;14.62;100.00;96501.41;5113232;28;20188;-83
2021/06/13 01:06:44;;;;;;;3.00;2.80;;;;;;;14.62;100.00;96500.59;5113037;28;20210;-83
2021/06/13 01:09:15;;;;;;;2.63;2.43;;;;;;;14.46;100.00;96504.94;5112964;28;20236;-83
2021/06/13 01:11:50;;;;;;;3.10;2.70;;;;;;;14.49;100.00;96499.31;5113141;28;20208;-83
2021/06/13 01:14:27;;;;;;;3.37;2.93;;;;;;;14.45;100.00;96499.84;5113354;28;20210;-84
2021/06/13 01:17:01;;;;;;;4.67;3.27;;;;;;;14.44;100.00;96504.31;5112939;28;20194;-83
2021/06/13 01:19:46;;;;;;;3.10;2.87;;;;;;;14.45;100.00;96502.50;5112993;28;20180;-84
2021/06/13 01:22:34;;;;;;;3.03;2.83;;;;;;;14.46;100.00;96499.66;5113020;28;20232;-83
2021/06/13 01:25:26;;;;;;;2.70;2.50;;;;;;;14.51;100.00;96493.88;5112954;28;20615;-83
2021/06/13 01:28:16;;;;;;;3.90;3.60;;;;;;;14.39;100.00;96503.19;5112668;28;20184;-83
2021/06/13 01:30:47;;;;;;;3.03;2.83;;;;;;;14.38;100.00;96499.72;5112739;28;20688;-84
2021/06/13 01:33:16;;;;;;;2.70;2.50;;;;;;;14.44;100.00;96496.38;5112791;28;20195;-84
2021/06/13 01:35:45;;;;;;;2.77;2.63;;;;;;;14.47;100.00;96488.06;5112555;28;20201;-83
2021/06/13 01:38:16;;;;;;;4.20;3.00;;;;;;;14.49;100.00;96499.31;5112654;28;20211;-83
2021/06/13 01:40:44;;;;;;;3.17;2.73;;;;;;;14.41;100.00;96491.44;5112676;28;20234;-83
2021/06/13 01:43:13;;;;;;;3.20;3.00;;;;;;;14.45;100.00;96492.75;5112041;28;20191;-83
2021/06/13 01:45:41;;;;;;;4.33;3.13;;;;;;;14.50;100.00;96484.28;5112439;28;20193;-83
2021/06/13 01:48:13;;;;;;;3.33;2.77;;;;;;;14.49;100.00;96485.28;5112692;28;20286;-84
2021/06/13 01:50:41;;;;;;;3.80;3.50;;;;;;;14.42;100.00;96479.88;5112377;28;20183;-84
2021/06/13 01:53:13;;;;;;;3.23;2.93;;;;;;;14.43;100.00;96481.50;5112252;28;20244;-83
2021/06/13 01:55:45;;;;;;;3.87;3.23;;;;;;;14.38;100.00;96486.50;5112468;28;20184;-84
2021/06/13 01:58:15;;;;;;;3.00;2.80;;;;;;;14.31;100.00;96480.28;5112452;28;20646;-83
2021/06/13 02:00:43;;;;;;;3.17;2.87;;;;;;;14.21;100.00;96485.81;5112396;28;20215;-84
2021/06/13 02:03:13;;;;;;;7.60;3.60;;;;;;;14.20;100.00;96493.91;5112414;28;20200;-83
2021/06/13 02:05:42;;;;;;;5.10;3.47;;;;;;;14.14;100.00;96490.16;5112251;28;20246;-83
2021/06/13 02:08:10;;;;;;;5.60;2.83;;;;;;;14.14;100.00;96489.34;5112055;28;20232;-84
2021/06/13 02:10:39;;;;;;;3.13;2.90;;;;;;;14.20;100.00;96491.25;5112489;28;20656;-84
2021/06/13 02:13:07;;;;;;;2.80;2.60;;;;;;;14.30;100.00;96497.13;5112062;28;20252;-83
2021/06/13 02:15:36;;;;;;;6.43;3.40;;;;;;;14.32;100.00;96486.41;5112144;28;20192;-84
2021/06/13 02:18:05;;;;;;;3.40;3.10;;;;;;;14.13;100.00;96495.59;5112189;28;20584;-83
2021/06/13 02:20:38;;;;;;;4.97;4.10;;;;;;;14.12;100.00;96488.66;5112094;28;20198;-83
2021/06/13 02:23:05;;;;;;;3.23;2.93;;;;;;;14.02;100.00;96489.72;5112332;28;20187;-83
2021/06/13 02:25:32;;;;;;;3.40;3.10;;;;;;;13.90;100.00;96493.75;5112066;28;20197;-83
2021/06/13 02:28:01;;;;;;;7.40;4.20;;;;;;;13.86;100.00;96492.47;5112214;28;20204;-83
2021/06/13 02:30:36;;;;;;;7.47;3.87;;;;;;;13.82;100.00;96499.09;5111960;28;20323;-83
2021/06/13 02:33:05;;;;;;;6.23;3.70;;;;;;;13.79;100.00;96488.88;5112249;28;20184;-83
2021/06/13 02:35:34;;;;;;;4.47;3.57;;;;;;;13.99;100.00;96478.66;5112268;28;20195;-83
2021/06/13 02:38:02;;;;;;;3.27;3.00;;;;;;;14.03;100.00;96478.16;5112400;28;20218;-83
2021/06/13 02:40:30;;;;;;;3.03;2.83;;;;;;;14.15;100.00;96480.41;5111802;28;20199;-83
2021/06/13 02:42:57;;;;;;;6.40;3.37;;;;;;;14.12;100.00;96481.56;5112074;28;20196;-83
2021/06/13 02:45:24;;;;;;;3.40;3.10;;;;;;;14.08;100.00;96485.56;5111971;28;20711;-83
2021/06/13 02:47:52;;;;;;;3.20;2.90;;;;;;;14.14;100.00;96482.22;5111879;28;20196;-83
2021/06/13 02:50:21;;;;;;;3.03;2.83;;;;;;;14.28;100.00;96480.63;5111927;28;20214;-83
2021/06/13 02:52:56;;;;;;;3.30;3.10;;;;;;;14.28;100.00;96475.34;5111617;28;20272;-83
2021/06/13 02:55:34;;;;;;;3.47;3.17;;;;;;;14.41;100.00;96475.59;5113633;28;20235;-83
2021/06/13 02:58:08;;;;;;;3.20;2.90;;;;;;;14.36;100.00;96475.28;5115923;28;20211;-82
2021/06/13 03:00:36;;;;;;;3.17;2.97;;;;;;;14.36;100.00;96472.63;5115484;28;20188;-83
2021/06/13 03:03:03;;;;;;;5.10;2.70;;;;;;;14.43;100.00;96467.47;5115713;28;20203;-83
2021/06/13 03:05:31;;;;;;;3.50;3.20;;;;;;;14.42;100.00;96477.22;5115475;28;20191;-83
2021/06/13 03:07:59;;;;;;;3.40;2.53;;;;;;;14.46;100.00;96469.75;5115227;28;20318;-83
2021/06/13 03:10:27;;;;;;;2.87;2.67;;;;;;;14.46;100.00;96473.22;5115462;28;20237;-83
2021/06/13 03:12:57;;;;;;;2.40;2.30;;;;;;;14.42;100.00;96469.28;5115509;28;20223;-83
2021/06/13 03:15:28;;;;;;;2.47;2.33;;;;;;;14.46;100.00;96467.94;5115250;28;20191;-83
2021/06/13 03:17:56;;;;;;;3.10;2.90;;;;;;;14.52;100.00;96474.38;5115295;28;20270;-83
2021/06/13 03:20:24;;;;;;;2.90;2.70;;;;;;;14.54;100.00;96463.59;5115182;28;20664;-83
2021/06/13 03:22:51;;;;;;;3.93;2.97;;;;;;;14.51;100.00;96459.47;5115374;28;20286;-84
2021/06/13 03:25:21;;;;;;;3.43;3.20;;;;;;;14.54;100.00;96466.25;5115072;28;20196;-83
2021/06/13 03:27:48;;;;;;;3.57;3.27;;;;;;;14.56;100.00;96467.72;5115338;28;20200;-83
2021/06/13 03:30:16;;;;;;;7.43;3.83;;;;;;;14.56;100.00;96461.63;5114908;28;20188;-83
2021/06/13 03:32:43;;;;;;;3.03;2.83;;;;;;;14.54;100.00;96463.59;5115196;28;20220;-83
2021/06/13 03:35:11;;;;;;;5.13;3.10;;;;;;;14.57;100.00;96468.53;5114941;28;20257;-83
2021/06/13 03:37:39;;;;;;;4.07;2.50;;;;;;;14.53;100.00;96461.97;5114999;28;20626;-83
2021/06/13 03:40:08;;;;;;;4.80;2.60;;;;;;;14.56;100.00;96456.31;5114574;28;20196;-83
2021/06/13 03:42:38;;;;;;;4.10;3.70;;;;;;;14.59;100.00;96445.38;5114814;28;20249;-83
2021/06/13 03:45:07;;;;;;;4.37;3.07;;;;;;;14.55;100.00;96454.66;5114751;28;20200;-83
2021/06/13 03:47:34;;;;;;;3.43;3.13;;;;;;;14.53;100.00;96452.19;5114822;28;20228;-83
2021/06/13 03:50:02;;;;;;;5.03;3.20;;;;;;;14.54;100.00;96453.84;5114682;28;20618;-83
2021/06/13 03:52:30;;;;;;;3.73;3.30;;;;;;;14.46;100.00;96461.81;5114953;28;20227;-84
2021/06/13 03:54:57;;;;;;;5.77;3.57;;;;;;;14.39;100.00;96467.00;5114467;28;20643;-84
2021/06/13 03:57:26;;;;;;;3.47;3.17;;;;;;;14.37;100.00;96470.81;5114378;28;20188;-83
2021/06/13 03:59:56;;;;;;;3.37;3.13;;;;;;;14.26;100.00;96478.16;5114411;28;20192;-83
2021/06/13 04:02:26;;;;;;;4.80;3.27;;;;;;;14.26;100.00;96467.56;5114516;28;20195;-84
2021/06/13 04:04:57;;;;;;;3.93;3.27;;;;;;;14.31;100.00;96469.72;5114665;28;20272;-83
2021/06/13 04:07:25;;;;;;;4.03;3.40;;;;;;;14.31;100.00;96469.72;5113455;28;20649;-83
2021/06/13 04:09:53;;;;;;;4.27;3.97;;;;;;;14.41;100.00;96459.72;5114361;28;20195;-84
2021/06/13 04:12:23;;;;;;;4.03;3.43;;;;;;;14.43;100.00;96470.09;5114341;28;20731;-83
2021/06/13 04:14:52;;;;;;;3.50;3.20;;;;;;;14.46;100.00;96472.41;5114474;28;20230;-85
2021/06/13 04:17:23;;;;;;;3.00;2.80;;;;;;;14.46;100.00;96470.56;5114326;28;20227;-84
2021/06/13 04:19:51;;;;;;;4.70;3.40;;;;;;;14.53;100.00;96470.72;5113890;28;20184;-84
2021/06/13 04:22:20;;;;;;;3.27;2.87;;;;;;;14.61;100.00;96464.53;5114205;28;20238;-84
2021/06/13 04:24:49;;;;;;;4.33;3.43;;;;;;;14.64;100.00;96464.16;5113969;28;20552;-84
2021/06/13 04:27:20;;;;;;;4.03;3.37;;;;;;;14.68;100.00;96468.91;5113940;28;20197;-83
2021/06/13 04:29:47;;;;;;;3.43;3.23;;;;;;;14.67;100.00;96463.81;5113918;28;20189;-84
2021/06/13 04:32:15;;;;;;;3.30;3.10;;;;;;;14.70;100.00;96466.09;5114275;28;20242;-84
2021/06/13 04:34:43;;;;;;;3.50;3.27;;;;;;;14.79;100.00;96467.69;5114020;28;20658;-84
2021/06/13 04:37:12;;;;;;;3.47;3.27;;;;;;;14.79;100.00;96462.41;5113983;28;20283;-84
2021/06/13 04:39:39;;;;;;;3.40;3.00;;;;;;;14.89;100.00;96467.41;5113621;28;20213;-84
2021/06/13 04:42:07;;;;;;;6.63;3.27;;;;;;;14.96;100.00;96465.69;5113706;28;20197;-84
2021/06/13 04:44:35;;;;;;;3.60;3.30;;;;;;;15.08;100.00;96466.06;5113549;28;20210;-84
2021/06/13 04:47:03;;;;;;;3.70;3.40;;;;;;;15.14;100.00;96460.06;5113485;28;20295;-85
2021/06/13 04:49:31;;;;;;;6.80;3.53;;;;;;;15.14;100.00;96460.88;5113431;28;20199;-85
2021/06/13 04:52:00;;;;;;;3.63;3.33;;;;;;;15.21;100.00;96461.78;5113831;28;20300;-84
2021/06/13 04:54:49;;;;;;;3.83;3.53;;;;;;;15.17;100.00;96459.66;5113319;28;20200;-84
2021/06/13 04:57:29;;;;;;;4.53;3.33;;;;;;;15.23;100.00;96459.75;5112964;27;20562;-84
2021/06/13 04:59:56;;;;;;;4.57;3.63;;;;;;;15.33;100.00;96454.19;5114361;27;20219;-85
2021/06/13 05:02:24;;;;;;;3.63;3.33;;;;;;;15.42;100.00;96446.97;5113407;28;20196;-84
2021/06/13 05:04:54;;;;;;;4.23;3.93;;;;;;;15.53;100.00;96453.63;5112818;28;20203;-85
2021/06/13 05:07:23;;;;;;;3.53;3.23;;;;;;;15.57;100.00;96447.78;5113195;28;20189;-85
2021/06/13 05:09:51;;;;;;;3.80;3.47;;;;;;;15.65;100.00;96450.31;5113084;28;20214;-86
2021/06/13 05:12:18;;;;;;;6.60;3.63;;;;;;;15.71;100.00;96448.78;5112901;28;20217;-85
2021/06/13 05:14:45;;;;;;;4.00;2.97;;;;;;;15.77;100.00;96442.75;5113040;28;20619;-85
2021/06/13 05:17:13;;;;;;;6.20;3.40;;;;;;;15.81;100.00;96444.00;5113072;28;20191;-85
2021/06/13 05:19:40;;;;;;;3.27;3.00;;;;;;;15.92;100.00;96434.75;5112912;28;20362;-85
2021/06/13 05:22:08;;;;;;;4.67;3.50;;;;;;;16.05;100.00;96434.06;5113081;28;20641;-85
2021/06/13 05:24:38;;;;;;;3.27;3.00;;;;;;;16.14;100.00;96432.91;5112708;28;20288;-85
2021/06/13 05:27:06;;;;;;;3.37;3.07;;;;;;;16.23;100.00;96434.44;5092590;28;20193;-84
2021/06/13 05:29:33;;;;;;;3.27;3.00;;;;;;;16.35;100.00;96432.13;5092460;28;20194;-85
2021/06/13 05:32:00;;;;;;;3.43;3.13;;;;;;;16.58;100.00;96429.22;5092246;28;20222;-85
2021/06/13 05:34:27;;;;;;;3.60;3.30;;;;;;;16.76;100.00;96431.44;5092253;28;20203;-86
2021/06/13 05:36:55;;;;;;;3.93;2.97;;;;;;;16.85;100.00;96439.06;5092173;28;20203;-86
2021/06/13 05:39:22;;;;;;;3.23;3.03;;;;;;;17.03;100.00;96429.78;5092085;28;20661;-85
2021/06/13 05:41:51;;;;;;;3.47;2.93;;;;;;;17.28;100.00;96425.66;5092327;28;20191;-85
2021/06/13 05:44:18;;;;;;;6.70;3.37;;;;;;;17.45;100.00;96423.47;5092188;28;20231;-85
2021/06/13 05:46:46;;;;;;;3.33;3.03;;;;;;;17.71;100.00;96419.28;5092320;28;20195;-84
2021/06/13 05:49:13;;;;;;;3.67;3.10;;;;;;;17.88;100.00;96417.13;5092120;28;20259;-85
2021/06/13 05:51:40;;;;;;;3.43;3.13;;;;;;;18.18;100.00;96417.56;5091848;28;20266;-84
2021/06/13 05:54:08;;;;;;;3.10;2.90;;;;;;;18.37;100.00;96415.97;5091956;28;20204;-85
2021/06/13 05:56:35;;;;;;;3.27;3.07;;;;;;;18.43;100.00;96428.47;5092065;28;20196;-84
2021/06/13 05:59:06;;;;;;;5.63;3.13;;;;;;;18.47;100.00;96429.69;5091945;28;20202;-84
2021/06/13 06:01:33;;;;;;;2.87;2.63;;;;;;;18.64;100.00;96446.91;5092232;28;20232;-84
2021/06/13 06:04:01;;;;;;;3.83;3.53;;;;;;;18.94;100.00;96452.63;5092126;28;20269;-84
2021/06/13 06:06:28;;;;;;;6.60;3.43;;;;;;;19.01;100.00;96447.28;5091983;28;20550;-84
2021/06/13 06:08:55;;;;;;;2.63;2.47;;;;;;;19.07;100.00;96467.78;5091588;28;20236;-84
2021/06/13 06:11:23;;;;;;;2.83;2.63;;;;;;;19.27;100.00;96475.75;5091712;28;20192;-84
2021/06/13 06:13:53;;;;;;;3.07;2.87;;;;;;;19.25;100.00;96486.59;5092060;28;20273;-85
2021/06/13 06:16:23;;;;;;;3.77;2.13;;;;;;;19.28;100.00;96492.56;5092273;28;20607;-84
2021/06/13 06:18:51;;;;;;;2.70;2.50;;;;;;;19.48;100.00;96488.00;5092045;28;20645;-84
2021/06/13 06:21:18;;;;;;;7.23;2.90;;;;;;;19.64;100.00;96487.59;5091579;28;20192;-84
2021/06/13 06:23:45;;;;;;;2.50;2.30;;;;;;;19.73;100.00;96488.16;5091698;28;20192;-84
2021/06/13 06:26:13;;;;;;;3.00;2.77;;;;;;;19.92;100.00;96487.28;5091773;28;20200;-84
2021/06/13 06:28:40;;;;;;;2.47;2.27;;;;;;;20.12;100.00;96497.00;5091412;28;20200;-84
2021/06/13 06:31:07;;;;;;;2.60;2.50;;;;;;;20.30;100.00;96502.47;5094731;28;20700;-84
2021/06/13 06:33:36;;;;;;;3.50;3.20;;;;;;;20.43;100.00;96521.06;5095974;28;20278;-84
2021/06/13 06:36:04;;;;;;;3.63;2.77;;;;;;;20.71;100.00;96532.44;5095831;28;20253;-84
2021/06/13 06:38:32;;;;;;;2.50;2.40;;;;;;;20.70;100.00;96536.97;5096017;28;20200;-86
2021/06/13 06:40:59;;;;;;;3.43;3.17;;;;;;;21.04;100.00;96543.72;5095870;28;20197;-86
2021/06/13 06:43:27;;;;;;;3.17;2.97;;;;;;;21.05;100.00;96539.19;5095742;28;20245;-86
2021/06/13 06:45:55;;;;;;;4.40;2.63;;;;;;;21.36;100.00;96551.69;5095830;28;20199;-86
2021/06/13 06:48:22;;;;;;;4.43;3.20;;;;;;;21.43;100.00;96565.81;5096021;28;20246;-87
2021/06/13 06:50:51;;;;;;;3.10;2.90;;;;;;;21.78;100.00;96559.91;5103639;28;20200;-87
2021/06/13 06:53:18;;;;;;;2.97;2.73;;;;;;;21.99;100.00;96559.47;5112477;28;20705;-87
2021/06/13 06:55:45;;;;;;;3.90;2.70;;;;;;;22.29;100.00;96548.84;5096056;28;20740;-87
2021/06/13 06:58:13;;;;;;;6.27;2.87;;;;;;;22.51;100.00;96554.56;5095772;28;20205;-87
2021/06/13 07:00:40;;;;;;;3.20;2.90;;;;;;;22.51;100.00;96559.91;5096052;28;20283;-87
2021/06/13 07:03:11;;;;;;;3.20;2.90;;;;;;;22.36;100.00;96569.38;5095907;28;20188;-88
2021/06/13 07:05:39;;;;;;;5.00;3.17;;;;;;;22.26;100.00;96581.41;5096106;28;20283;-87
2021/06/13 07:08:08;;;;;;;3.37;2.77;;;;;;;22.39;100.00;96595.72;5095619;28;20236;-88
2021/06/13 07:10:35;;;;;;;3.70;3.33;;;;;;;22.54;100.00;96591.56;5095462;28;20192;-87
2021/06/13 07:13:04;;;;;;;3.00;2.80;;;;;;;22.59;100.00;96601.63;5095603;28;20224;-87
2021/06/13 07:15:31;;;;;;;3.27;3.07;;;;;;;22.70;100.00;96606.22;5095528;28;20200;-87
2021/06/13 07:17:58;;;;;;;3.20;3.00;;;;;;;22.83;100.00;96629.34;5095909;28;20642;-86
2021/06/13 07:20:26;;;;;;;2.80;2.60;;;;;;;22.79;100.00;96628.13;5095580;28;20219;-88
2021/06/13 07:22:53;;;;;;;2.63;2.43;;;;;;;22.89;100.00;96631.09;5095913;28;20245;-87
2021/06/13 07:25:22;;;;;;;3.63;3.30;;;;;;;23.09;100.00;96628.16;5095561;28;20291;-88
2021/06/13 07:27:49;;;;;;;3.27;3.07;;;;;;;23.27;100.00;96624.59;5095747;28;20265;-88
2021/06/13 07:30:19;;;;;;;4.23;2.60;;;;;;;22.95;100.00;96643.63;5095630;28;20254;-87
2021/06/13 07:32:47;;;;;;;3.77;3.47;;;;;;;23.39;100.00;96670.22;5095390;28;20224;-88
2021/06/13 07:35:15;;;;;;;3.97;3.27;;;;;;;23.53;100.00;96642.13;5095386;28;20690;-88
2021/06/13 07:37:43;;;;;;;2.83;2.63;;;;;;;23.41;100.00;96604.53;5095453;28;20322;-88
2021/06/13 07:40:12;;;;;;;5.60;3.00;;;;;;;23.52;100.00;96610.16;5095573;28;20622;-88
2021/06/13 07:42:41;;;;;;;3.50;3.20;;;;;;;23.42;100.00;96638.38;5094213;28;20192;-88
2021/06/13 07:45:11;;;;;;;3.40;3.20;;;;;;;23.32;100.00;96627.41;5095199;28;20188;-88
2021/06/13 07:47:39;;;;;;;3.93;3.63;;;;;;;23.19;100.00;96646.38;5095142;28;20245;-88
2021/06/13 07:50:10;;;;;;;4.80;4.40;;;;;;;23.02;100.00;96655.06;5094809;28;20207;-88
2021/06/13 07:52:38;;;;;;;5.10;4.67;;;;;;;22.91;100.00;96647.78;5094833;28;20216;-87
2021/06/13 07:55:07;;;;;;;3.80;3.50;;;;;;;22.90;100.00;96637.28;5094784;28;20226;-88
2021/06/13 07:57:35;;;;;;;6.23;4.40;;;;;;;22.94;100.00;96631.28;5094961;28;20740;-88
2021/06/13 08:00:06;;;;;;;4.23;3.93;;;;;;;23.12;100.00;96649.16;5094772;28;20227;-87
2021/06/13 08:02:33;;;;;;;3.40;3.10;;;;;;;23.11;100.00;96641.34;5094691;28;20188;-88
2021/06/13 08:05:07;;;;;;;4.70;3.53;;;;;;;23.15;100.00;96647.88;5094916;28;20192;-87
2021/06/13 08:07:35;;;;;;;8.20;6.30;;;;;;;23.10;100.00;96653.09;5094615;28;20668;-88
2021/06/13 08:10:02;;;;;;;19.13;17.53;;;;;;;22.87;100.00;96633.19;5094454;28;20657;-87
2021/06/13 08:12:30;;;;;;;14.57;13.37;;;;;;;22.90;100.00;96646.13;5094463;28;20228;-88
2021/06/13 08:14:57;;;;;;;4.87;4.30;;;;;;;22.89;100.00;96649.84;5094820;28;20192;-88
2021/06/13 08:17:26;;;;;;;23.87;21.63;;;;;;;22.89;100.00;96665.94;5094507;28;20249;-88
2021/06/13 08:19:53;;;;;;;6.63;5.33;;;;;;;22.77;100.00;96668.56;5094566;28;20236;-88
2021/06/13 08:22:21;;;;;;;4.50;4.20;;;;;;;22.64;100.00;96665.22;5111729;28;20279;-88
2021/06/13 08:24:48;;;;;;;15.40;14.20;;;;;;;22.92;100.00;96665.50;5114911;28;20235;-88
2021/06/13 08:27:16;;;;;;;11.40;10.20;;;;;;;23.10;100.00;96674.56;5114971;28;20215;-87
2021/06/13 08:29:43;;;;;;;12.70;11.10;;;;;;;23.12;100.00;96675.97;5114597;28;20249;-88
2021/06/13 08:32:10;;;;;;;9.97;9.00;;;;;;;23.02;100.00;96665.78;5114490;28;20206;-88
2021/06/13 08:34:39;;;;;;;12.30;11.27;;;;;;;23.37;100.00;96675.81;5114952;28;20549;-88
2021/06/13 08:37:07;;;;;;;10.20;9.20;;;;;;;23.58;100.00;96660.22;5114543;28;20191;-88
2021/06/13 08:39:34;;;;;;;10.83;9.83;;;;;;;23.82;100.00;96653.84;5114598;28;20752;-89
2021/06/13 08:42:02;;;;;;;6.47;4.40;;;;;;;23.70;100.00;96613.59;5114932;28;20195;-89
2021/06/13 08:44:29;;;;;;;8.17;3.80;;;;;;;23.67;100.00;96586.38;5114846;28;20204;-88
2021/06/13 08:46:58;;;;;;;5.70;4.97;;;;;;;24.09;100.00;96599.69;5114889;28;20195;-89
2021/06/13 08:49:26;;;;;;;18.87;16.87;;;;;;;24.02;100.00;96605.16;5114761;28;20252;-88
2021/06/13 08:51:55;;;;;;;7.40;5.50;;;;;;;23.70;100.00;96581.41;5114534;28;20200;-89
2021/06/13 08:54:24;;;;;;;6.80;4.87;;;;;;;23.65;100.00;96588.47;5113886;28;20752;-88
2021/06/13 08:56:51;;;;;;;5.50;5.00;;;;;;;23.89;100.00;96589.31;5114691;28;20191;-89
2021/06/13 08:59:18;;;;;;;30.77;10.33;;;;;;;24.34;100.00;96596.69;5114269;28;20200;-89
2021/06/13 09:01:46;;;;;;;14.07;8.77;;;;;;;24.34;100.00;96570.66;5114448;28;20198;-89
2021/06/13 09:04:13;;;;;;;7.10;5.93;;;;;;;24.33;100.00;96558.28;5114453;28;20203;-89
2021/06/13 09:06:41;;;;;;;5.43;4.33;;;;;;;24.39;100.00;96554.66;5114064;28;20238;-88
2021/06/13 09:09:19;;;;;;;4.40;4.00;;;;;;;24.22;100.00;96561.81;5113903;28;20367;-89
2021/06/13 09:11:59;;;;;;;3.17;2.97;;;;;;;23.90;100.00;96553.34;5114021;28;20659;-89
2021/06/13 09:14:28;;;;;;;3.13;2.93;;;;;;;23.80;100.00;96535.19;5114358;28;20289;-89
2021/06/13 09:16:56;;;;;;;3.13;2.87;;;;;;;23.73;100.00;96550.59;5114043;28;20195;-89
2021/06/13 09:19:24;;;;;;;9.23;8.23;;;;;;;24.02;100.00;96545.28;5114298;28;20625;-89
2021/06/13 09:21:52;;;;;;;4.47;3.63;;;;;;;24.15;100.00;96508.25;5114176;28;20200;-90
2021/06/13 09:24:22;;;;;;;3.53;3.23;;;;;;;23.80;100.00;96465.41;5113981;28;20195;-88
2021/06/13 09:26:50;;;;;;;6.77;3.47;;;;;;;24.05;100.00;96483.06;5114064;28;20248;-89
2021/06/13 09:29:18;;;;;;;9.43;8.57;;;;;;;24.14;100.00;96508.47;5114093;28;20245;-89
2021/06/13 09:31:45;;;;;;;11.90;11.00;;;;;;;24.02;100.00;96513.06;5113609;28;20195;-89
2021/06/13 09:34:18;;;;;;;15.40;10.33;;;;;;;24.16;100.00;96522.50;5113512;28;20231;-88
2021/06/13 09:36:46;;;;;;;9.47;6.63;;;;;;;24.28;100.00;96528.66;5113688;28;20253;-89
2021/06/13 09:39:14;;;;;;;2.93;2.73;;;;;;;23.94;100.00;96507.03;5113838;28;20256;-89
2021/06/13 09:41:46;;;;;;;6.47;3.97;;;;;;;23.73;100.00;96508.47;5113913;28;20582;-89
2021/06/13 09:44:15;;;;;;;9.13;6.67;;;;;;;23.59;100.00;96482.06;5113520;28;20183;-89
2021/06/13 09:46:44;;;;;;;4.80;3.67;;;;;;;23.42;100.00;96455.19;5113445;28;20230;-89
2021/06/13 09:49:13;;;;;;;3.87;2.90;;;;;;;23.36;100.00;96480.25;5113513;28;20248;-89
2021/06/13 09:51:43;;;;;;;2.67;2.50;;;;;;;23.26;100.00;96475.47;5113550;28;20227;-88
2021/06/13 09:54:17;;;;;;;3.30;2.97;;;;;;;23.22;100.00;96472.44;5113385;28;20699;-89
2021/06/13 09:56:46;;;;;;;2.37;2.27;;;;;;;23.00;100.00;96432.00;5113441;28;20218;-89
2021/06/13 09:59:15;;;;;;;4.60;3.20;;;;;;;22.84;100.00;96438.00;5113191;28;20198;-89
2021/06/13 10:01:43;;;;;;;6.03;2.57;;;;;;;22.86;100.00;96452.00;5113653;28;20200;-89
2021/06/13 10:04:26;;;;;;;5.70;5.10;;;;;;;22.45;100.00;96517.16;5112643;28;20192;-88
2021/06/13 10:06:56;;;;;;;5.73;5.13;;;;;;;21.09;100.00;96559.91;5112820;28;20222;-87
2021/06/13 10:09:34;;;;;;;8.07;4.10;;;;;;;19.94;100.00;96679.94;5112412;28;20239;-86
2021/06/13 10:12:08;;;;;;;10.70;7.13;;;;;;;18.88;100.00;96852.16;5112878;28;20215;-89
2021/06/13 10:14:36;;;;;;;10.00;6.07;;;;;;;18.50;100.00;96991.72;5112507;28;20265;-87
2021/06/13 10:17:03;;;;;;;18.53;10.43;;;;;;;18.00;100.00;97022.69;5112625;28;20192;-87
2021/06/13 10:19:38;;;;;;;7.00;5.93;;;;;;;17.89;100.00;96946.06;5112962;28;20213;-87
2021/06/13 10:22:06;;;;;;;3.47;3.17;;;;;;;17.92;100.00;96803.94;5112813;28;20219;-86
2021/06/13 10:24:36;;;;;;;4.60;4.20;;;;;;;17.66;100.00;96709.59;5112057;28;20202;-86
2021/06/13 10:27:07;;;;;;;3.67;3.07;;;;;;;17.71;100.00;96619.47;5112609;28;20210;-86
2021/06/13 10:29:38;;;;;;;3.10;2.87;;;;;;;17.80;100.00;96527.09;5112374;28;20630;-86
2021/06/13 10:32:07;;;;;;;3.60;3.30;;;;;;;17.87;100.00;96447.38;5112132;28;20266;-86
2021/06/13 10:34:35;;;;;;;2.60;2.43;;;;;;;17.97;100.00;96399.94;5112158;28;20714;-86
2021/06/13 10:37:05;;;;;;;2.57;2.47;;;;;;;18.17;100.00;96384.03;5112150;28;20202;-86
2021/06/13 10:39:34;;;;;;;3.00;2.70;;;;;;;18.28;100.00;96365.59;5112276;28;20298;-86
2021/06/13 10:42:02;;;;;;;2.90;2.70;;;;;;;18.40;100.00;96354.38;5112096;28;20207;-86
2021/06/13 10:44:44;;;;;;;6.33;5.73;;;;;;;18.61;100.00;96337.34;5112004;28;20231;-86
2021/06/13 10:47:15;;;;;;;3.47;3.17;;;;;;;18.68;100.00;96317.66;5112146;28;20262;-87
2021/06/13 10:49:45;;;;;;;4.93;3.37;;;;;;;18.65;100.00;96312.75;5112357;28;20188;-86
2021/06/13 10:52:14;;;;;;;7.93;3.57;;;;;;;18.86;100.00;96303.72;5111972;28;20272;-86
2021/06/13 10:54:42;;;;;;;4.80;3.70;;;;;;;18.87;100.00;96304.53;5111785;28;20220;-86
2021/06/13 10:57:36;;;;;;;4.33;4.03;;;;;;;18.80;100.00;96306.41;5111895;28;20203;-86
2021/06/13 11:00:29;;;;;;;5.90;5.40;;;;;;;18.69;100.00;96308.66;5112078;28;20183;-86
2021/06/13 11:03:01;;;;;;;5.63;4.70;;;;;;;18.79;100.00;96304.78;5112034;28;20184;-86
2021/06/13 11:05:43;;;;;;;5.97;5.47;;;;;;;18.88;100.00;96300.88;5111964;28;20548;-86
2021/06/13 11:08:12;;;;;;;5.50;3.83;;;;;;;18.96;100.00;96281.97;5112000;28;20656;-86
2021/06/13 11:10:39;;;;;;;3.87;3.50;;;;;;;18.77;100.00;96289.00;5111338;28;20188;-86
2021/06/13 11:13:14;;;;;;;3.50;3.13;;;;;;;18.75;100.00;96285.75;5111645;28;20192;-85
2021/06/13 11:16:04;;;;;;;4.00;3.57;;;;;;;18.58;100.00;96295.97;5112142;28;20183;-86
2021/06/13 11:18:37;;;;;;;5.80;4.13;;;;;;;18.58;100.00;96297.84;5114888;28;20184;-87
2021/06/13 11:21:19;;;;;;;4.33;3.93;;;;;;;18.43;100.00;96300.72;5114970;28;20290;-86
2021/06/13 11:23:54;;;;;;;4.33;3.93;;;;;;;18.45;100.00;96299.47;5114800;28;20187;-86
2021/06/13 11:26:36;;;;;;;4.37;4.00;;;;;;;18.28;100.00;96304.41;5114668;28;20187;-86
2021/06/13 11:29:06;;;;;;;4.30;3.97;;;;;;;18.22;100.00;96291.94;5114425;28;20188;-86
2021/06/13 11:31:34;;;;;;;6.10;3.73;;;;;;;18.32;100.00;96294.16;5114236;28;20272;-86
2021/06/13 11:34:09;;;;;;;7.53;4.13;;;;;;;18.27;100.00;96284.16;5114082;28;20276;-86